sensor_id;sensor_type;location;lat;lon;timestamp;P1;durP1;ratioP1;P2;durP2;ratioP2
9449;SDS011;4763;48.370;10.874;2022-07-29T00:01:00;2.13;;;1.70;;
9449;SDS011;4763;48.370;10.874;2022-07-29T00:03:28;3.37;;;1.57;;
9449;SDS011;4763;48.370;10.874;2022-07-29T00:05:55;3.97;;;2.00;;
9449;SDS011;4763;48.370;10.874;2022-07-29T00:08:22;2.27;;;1.80;;
9449;SDS011;4763;48.370;10.874;2022-07-29T00:10:49;2.50;;;1.70;;
9449;SDS011;4763;48.370;10.874;2022-07-29T00:13:16;2.50;;;1.60;;
9449;SDS011;4763;48.370;10.874;2022-07-29T00:15:43;2.17;;;1.73;;
9449;SDS011;4763;48.370;10.874;2022-07-29T00:18:10;2.63;;;1.90;;
9449;SDS011;4763;48.370;10.874;2022-07-29T00:20:38;3.77;;;1.90;;
9449;SDS011;4763;48.370;10.874;2022-07-29T00:23:05;3.20;;;1.70;;
9449;SDS011;4763;48.370;10.874;2022-07-29T00:25:32;2.27;;;1.73;;
9449;SDS011;4763;48.370;10.874;2022-07-29T00:28:00;2.93;;;2.10;;
9449;SDS011;4763;48.370;10.874;2022-07-29T00:30:27;2.00;;;1.80;;
9449;SDS011;4763;48.370;10.874;2022-07-29T00:32:54;2.40;;;1.87;;
9449;SDS011;4763;48.370;10.874;2022-07-29T00:35:21;2.73;;;1.90;;
9449;SDS011;4763;48.370;10.874;2022-07-29T00:38:06;2.50;;;1.70;;
9449;SDS011;4763;48.370;10.874;2022-07-29T00:40:33;2.30;;;1.80;;
9449;SDS011;4763;48.370;10.874;2022-07-29T00:43:00;5.23;;;1.80;;
9449;SDS011;4763;48.370;10.874;2022-07-29T00:45:27;3.03;;;1.80;;
9449;SDS011;4763;48.370;10.874;2022-07-29T00:47:55;3.00;;;1.50;;
9449;SDS011;4763;48.370;10.874;2022-07-29T00:50:22;2.07;;;1.90;;
9449;SDS011;4763;48.370;10.874;2022-07-29T00:52:49;2.63;;;1.90;;
9449;SDS011;4763;48.370;10.874;2022-07-29T00:55:19;2.57;;;2.00;;
9449;SDS011;4763;48.370;10.874;2022-07-29T00:57:47;4.67;;;1.80;;
9449;SDS011;4763;48.370;10.874;2022-07-29T01:00:16;4.63;;;2.10;;
9449;SDS011;4763;48.370;10.874;2022-07-29T01:02:45;2.87;;;1.87;;
9449;SDS011;4763;48.370;10.874;2022-07-29T01:05:13;5.50;;;1.90;;
9449;SDS011;4763;48.370;10.874;2022-07-29T01:07:42;4.10;;;2.30;;
9449;SDS011;4763;48.370;10.874;2022-07-29T01:10:12;3.43;;;2.50;;
9449;SDS011;4763;48.370;10.874;2022-07-29T01:12:43;9.77;;;3.07;;
9449;SDS011;4763;48.370;10.874;2022-07-29T01:15:12;3.20;;;2.10;;
9449;SDS011;4763;48.370;10.874;2022-07-29T01:17:43;2.67;;;2.40;;
9449;SDS011;4763;48.370;10.874;2022-07-29T01:20:17;2.90;;;2.50;;
9449;SDS011;4763;48.370;10.874;2022-07-29T01:22:59;4.20;;;2.50;;
9449;SDS011;4763;48.370;10.874;2022-07-29T01:28:42;3.13;;;2.57;;
9449;SDS011;4763;48.370;10.874;2022-07-29T01:31:24;4.70;;;2.90;;
9449;SDS011;4763;48.370;10.874;2022-07-29T01:33:58;3.97;;;2.67;;
9449;SDS011;4763;48.370;10.874;2022-07-29T01:36:29;2.97;;;2.67;;
9449;SDS011;4763;48.370;10.874;2022-07-29T01:39:02;5.03;;;2.80;;
9449;SDS011;4763;48.370;10.874;2022-07-29T01:41:32;3.23;;;2.80;;
9449;SDS011;4763;48.370;10.874;2022-07-29T01:44:06;4.47;;;2.90;;
9449;SDS011;4763;48.370;10.874;2022-07-29T01:46:39;5.57;;;3.47;;
9449;SDS011;4763;48.370;10.874;2022-07-29T01:49:16;4.33;;;2.57;;
9449;SDS011;4763;48.370;10.874;2022-07-29T01:51:47;5.33;;;3.00;;
9449;SDS011;4763;48.370;10.874;2022-07-29T01:54:18;4.70;;;3.47;;
9449;SDS011;4763;48.370;10.874;2022-07-29T01:56:51;5.57;;;2.83;;
9449;SDS011;4763;48.370;10.874;2022-07-29T01:59:22;4.23;;;2.90;;
9449;SDS011;4763;48.370;10.874;2022-07-29T02:01:52;4.23;;;2.97;;
9449;SDS011;4763;48.370;10.874;2022-07-29T02:04:21;5.03;;;2.90;;
9449;SDS011;4763;48.370;10.874;2022-07-29T02:06:50;5.13;;;3.10;;
9449;SDS011;4763;48.370;10.874;2022-07-29T02:09:21;3.53;;;2.73;;
9449;SDS011;4763;48.370;10.874;2022-07-29T02:11:52;4.77;;;3.07;;
9449;SDS011;4763;48.370;10.874;2022-07-29T02:14:22;3.23;;;2.53;;
9449;SDS011;4763;48.370;10.874;2022-07-29T02:16:51;4.37;;;2.70;;
9449;SDS011;4763;48.370;10.874;2022-07-29T02:19:21;3.10;;;2.63;;
9449;SDS011;4763;48.370;10.874;2022-07-29T02:21:50;3.00;;;2.40;;
9449;SDS011;4763;48.370;10.874;2022-07-29T02:24:19;4.87;;;2.70;;
9449;SDS011;4763;48.370;10.874;2022-07-29T02:26:48;5.83;;;3.63;;
9449;SDS011;4763;48.370;10.874;2022-07-29T02:29:18;4.43;;;2.30;;
9449;SDS011;4763;48.370;10.874;2022-07-29T02:31:51;2.20;;;2.00;;
9449;SDS011;4763;48.370;10.874;2022-07-29T02:34:39;3.57;;;2.30;;
9449;SDS011;4763;48.370;10.874;2022-07-29T02:37:09;3.73;;;2.47;;
9449;SDS011;4763;48.370;10.874;2022-07-29T02:39:55;2.57;;;2.37;;
9449;SDS011;4763;48.370;10.874;2022-07-29T02:42:24;2.93;;;2.60;;
9449;SDS011;4763;48.370;10.874;2022-07-29T02:44:54;2.97;;;2.20;;
9449;SDS011;4763;48.370;10.874;2022-07-29T02:47:23;2.77;;;2.33;;
9449;SDS011;4763;48.370;10.874;2022-07-29T02:49:55;2.67;;;1.83;;
9449;SDS011;4763;48.370;10.874;2022-07-29T02:52:29;2.90;;;2.10;;
9449;SDS011;4763;48.370;10.874;2022-07-29T02:55:02;3.13;;;2.23;;
9449;SDS011;4763;48.370;10.874;2022-07-29T02:57:43;2.47;;;2.07;;
9449;SDS011;4763;48.370;10.874;2022-07-29T03:00:13;3.27;;;2.30;;
9449;SDS011;4763;48.370;10.874;2022-07-29T03:02:43;3.20;;;2.50;;
9449;SDS011;4763;48.370;10.874;2022-07-29T03:05:14;3.43;;;2.17;;
9449;SDS011;4763;48.370;10.874;2022-07-29T03:07:45;2.63;;;2.13;;
9449;SDS011;4763;48.370;10.874;2022-07-29T03:10:13;4.07;;;2.43;;
9449;SDS011;4763;48.370;10.874;2022-07-29T03:12:40;3.57;;;2.03;;
9449;SDS011;4763;48.370;10.874;2022-07-29T03:15:08;4.53;;;2.30;;
9449;SDS011;4763;48.370;10.874;2022-07-29T03:17:36;4.13;;;2.40;;
9449;SDS011;4763;48.370;10.874;2022-07-29T03:20:07;4.07;;;2.13;;
9449;SDS011;4763;48.370;10.874;2022-07-29T03:22:38;9.20;;;2.20;;
9449;SDS011;4763;48.370;10.874;2022-07-29T03:25:08;3.63;;;2.60;;
9449;SDS011;4763;48.370;10.874;2022-07-29T03:27:35;4.30;;;2.90;;
9449;SDS011;4763;48.370;10.874;2022-07-29T03:30:03;5.63;;;2.97;;
9449;SDS011;4763;48.370;10.874;2022-07-29T03:32:30;4.67;;;2.53;;
9449;SDS011;4763;48.370;10.874;2022-07-29T03:34:57;3.43;;;2.50;;
9449;SDS011;4763;48.370;10.874;2022-07-29T03:37:25;6.13;;;3.03;;
9449;SDS011;4763;48.370;10.874;2022-07-29T03:39:53;3.33;;;2.57;;
9449;SDS011;4763;48.370;10.874;2022-07-29T03:42:23;4.43;;;2.83;;
9449;SDS011;4763;48.370;10.874;2022-07-29T03:44:52;3.13;;;2.30;;
9449;SDS011;4763;48.370;10.874;2022-07-29T03:47:22;2.70;;;2.43;;
9449;SDS011;4763;48.370;10.874;2022-07-29T03:49:52;2.33;;;2.03;;
9449;SDS011;4763;48.370;10.874;2022-07-29T03:52:22;2.40;;;2.20;;
9449;SDS011;4763;48.370;10.874;2022-07-29T03:54:50;3.63;;;2.37;;
9449;SDS011;4763;48.370;10.874;2022-07-29T03:57:18;2.83;;;2.33;;
9449;SDS011;4763;48.370;10.874;2022-07-29T03:59:46;2.90;;;2.10;;
9449;SDS011;4763;48.370;10.874;2022-07-29T04:02:14;5.17;;;2.33;;
9449;SDS011;4763;48.370;10.874;2022-07-29T04:04:41;3.67;;;2.10;;
9449;SDS011;4763;48.370;10.874;2022-07-29T04:07:10;3.57;;;2.40;;
9449;SDS011;4763;48.370;10.874;2022-07-29T04:09:38;5.13;;;2.37;;
9449;SDS011;4763;48.370;10.874;2022-07-29T04:12:06;4.70;;;2.67;;
9449;SDS011;4763;48.370;10.874;2022-07-29T04:14:34;4.47;;;2.80;;
9449;SDS011;4763;48.370;10.874;2022-07-29T04:17:03;5.40;;;1.80;;
9449;SDS011;4763;48.370;10.874;2022-07-29T04:19:30;4.80;;;2.20;;
9449;SDS011;4763;48.370;10.874;2022-07-29T04:21:58;3.13;;;1.87;;
9449;SDS011;4763;48.370;10.874;2022-07-29T04:24:25;3.37;;;2.43;;
9449;SDS011;4763;48.370;10.874;2022-07-29T04:26:53;2.40;;;2.10;;
9449;SDS011;4763;48.370;10.874;2022-07-29T04:29:22;2.70;;;2.20;;
9449;SDS011;4763;48.370;10.874;2022-07-29T04:31:48;3.97;;;2.20;;
9449;SDS011;4763;48.370;10.874;2022-07-29T04:34:15;4.10;;;2.40;;
9449;SDS011;4763;48.370;10.874;2022-07-29T04:36:43;2.20;;;1.97;;
9449;SDS011;4763;48.370;10.874;2022-07-29T04:39:13;3.57;;;1.90;;
9449;SDS011;4763;48.370;10.874;2022-07-29T04:41:43;2.40;;;1.97;;
9449;SDS011;4763;48.370;10.874;2022-07-29T04:44:10;3.80;;;2.23;;
9449;SDS011;4763;48.370;10.874;2022-07-29T04:46:38;3.27;;;2.50;;
9449;SDS011;4763;48.370;10.874;2022-07-29T04:49:05;3.57;;;2.30;;
9449;SDS011;4763;48.370;10.874;2022-07-29T04:51:32;2.73;;;2.30;;
9449;SDS011;4763;48.370;10.874;2022-07-29T04:53:59;3.03;;;2.37;;
9449;SDS011;4763;48.370;10.874;2022-07-29T04:56:26;4.40;;;2.53;;
9449;SDS011;4763;48.370;10.874;2022-07-29T04:58:53;4.73;;;2.73;;
9449;SDS011;4763;48.370;10.874;2022-07-29T05:01:20;4.03;;;2.60;;
9449;SDS011;4763;48.370;10.874;2022-07-29T05:03:48;2.80;;;2.60;;
9449;SDS011;4763;48.370;10.874;2022-07-29T05:06:15;3.83;;;3.00;;
9449;SDS011;4763;48.370;10.874;2022-07-29T05:08:42;6.37;;;3.20;;
9449;SDS011;4763;48.370;10.874;2022-07-29T05:11:09;3.47;;;3.10;;
9449;SDS011;4763;48.370;10.874;2022-07-29T05:13:36;3.00;;;2.70;;
9449;SDS011;4763;48.370;10.874;2022-07-29T05:16:03;4.13;;;3.27;;
9449;SDS011;4763;48.370;10.874;2022-07-29T05:18:31;4.17;;;3.00;;
9449;SDS011;4763;48.370;10.874;2022-07-29T05:20:59;4.13;;;2.70;;
9449;SDS011;4763;48.370;10.874;2022-07-29T05:23:26;3.07;;;2.77;;
9449;SDS011;4763;48.370;10.874;2022-07-29T05:25:53;5.10;;;2.40;;
9449;SDS011;4763;48.370;10.874;2022-07-29T05:28:20;3.90;;;2.47;;
9449;SDS011;4763;48.370;10.874;2022-07-29T05:30:47;2.90;;;2.47;;
9449;SDS011;4763;48.370;10.874;2022-07-29T05:33:14;4.77;;;2.90;;
9449;SDS011;4763;48.370;10.874;2022-07-29T05:35:41;4.17;;;2.50;;
9449;SDS011;4763;48.370;10.874;2022-07-29T05:38:09;4.90;;;2.70;;
9449;SDS011;4763;48.370;10.874;2022-07-29T05:40:36;5.20;;;2.43;;
9449;SDS011;4763;48.370;10.874;2022-07-29T05:43:03;2.90;;;2.40;;
9449;SDS011;4763;48.370;10.874;2022-07-29T05:45:30;4.83;;;2.73;;
9449;SDS011;4763;48.370;10.874;2022-07-29T05:47:57;6.47;;;2.70;;
9449;SDS011;4763;48.370;10.874;2022-07-29T05:50:23;3.97;;;2.57;;
9449;SDS011;4763;48.370;10.874;2022-07-29T05:52:50;5.57;;;3.03;;
9449;SDS011;4763;48.370;10.874;2022-07-29T05:55:19;6.77;;;3.00;;
9449;SDS011;4763;48.370;10.874;2022-07-29T05:57:45;6.37;;;2.60;;
9449;SDS011;4763;48.370;10.874;2022-07-29T06:00:12;5.20;;;3.00;;
9449;SDS011;4763;48.370;10.874;2022-07-29T06:02:40;3.60;;;2.80;;
9449;SDS011;4763;48.370;10.874;2022-07-29T06:05:07;4.80;;;2.50;;
9449;SDS011;4763;48.370;10.874;2022-07-29T06:07:34;3.60;;;2.80;;
9449;SDS011;4763;48.370;10.874;2022-07-29T06:10:01;3.93;;;2.93;;
9449;SDS011;4763;48.370;10.874;2022-07-29T06:12:29;3.40;;;3.10;;
9449;SDS011;4763;48.370;10.874;2022-07-29T06:14:56;3.80;;;3.20;;
9449;SDS011;4763;48.370;10.874;2022-07-29T06:17:23;4.07;;;3.60;;
9449;SDS011;4763;48.370;10.874;2022-07-29T06:19:50;3.63;;;2.57;;
9449;SDS011;4763;48.370;10.874;2022-07-29T06:22:17;6.40;;;3.23;;
9449;SDS011;4763;48.370;10.874;2022-07-29T06:24:44;4.70;;;2.57;;
9449;SDS011;4763;48.370;10.874;2022-07-29T06:27:11;7.73;;;2.70;;
9449;SDS011;4763;48.370;10.874;2022-07-29T06:29:39;3.37;;;3.07;;
9449;SDS011;4763;48.370;10.874;2022-07-29T06:32:06;4.13;;;2.77;;
9449;SDS011;4763;48.370;10.874;2022-07-29T06:34:34;5.40;;;2.60;;
9449;SDS011;4763;48.370;10.874;2022-07-29T06:37:05;3.50;;;2.60;;
9449;SDS011;4763;48.370;10.874;2022-07-29T06:39:33;5.93;;;3.13;;
9449;SDS011;4763;48.370;10.874;2022-07-29T06:42:01;3.17;;;2.47;;
9449;SDS011;4763;48.370;10.874;2022-07-29T06:44:28;3.50;;;2.77;;
9449;SDS011;4763;48.370;10.874;2022-07-29T06:46:56;3.87;;;2.57;;
9449;SDS011;4763;48.370;10.874;2022-07-29T06:49:23;3.27;;;2.53;;
9449;SDS011;4763;48.370;10.874;2022-07-29T06:51:51;2.40;;;2.20;;
9449;SDS011;4763;48.370;10.874;2022-07-29T06:54:18;3.90;;;2.70;;
9449;SDS011;4763;48.370;10.874;2022-07-29T06:56:45;3.07;;;2.17;;
9449;SDS011;4763;48.370;10.874;2022-07-29T06:59:12;2.90;;;2.60;;
9449;SDS011;4763;48.370;10.874;2022-07-29T07:01:40;3.70;;;2.47;;
9449;SDS011;4763;48.370;10.874;2022-07-29T07:04:10;3.80;;;2.58;;
9449;SDS011;4763;48.370;10.874;2022-07-29T07:06:38;3.05;;;2.58;;
9449;SDS011;4763;48.370;10.874;2022-07-29T07:09:05;4.13;;;2.67;;
9449;SDS011;4763;48.370;10.874;2022-07-29T07:11:32;3.70;;;2.35;;
9449;SDS011;4763;48.370;10.874;2022-07-29T07:13:59;2.97;;;2.33;;
9449;SDS011;4763;48.370;10.874;2022-07-29T07:16:26;3.03;;;2.03;;
9449;SDS011;4763;48.370;10.874;2022-07-29T07:18:53;2.60;;;2.08;;
9449;SDS011;4763;48.370;10.874;2022-07-29T07:21:21;4.03;;;2.13;;
9449;SDS011;4763;48.370;10.874;2022-07-29T07:23:48;2.95;;;1.98;;
9449;SDS011;4763;48.370;10.874;2022-07-29T07:26:15;2.05;;;1.60;;
9449;SDS011;4763;48.370;10.874;2022-07-29T07:28:42;2.60;;;1.85;;
9449;SDS011;4763;48.370;10.874;2022-07-29T07:31:09;7.72;;;2.22;;
9449;SDS011;4763;48.370;10.874;2022-07-29T07:33:36;3.97;;;3.17;;
9449;SDS011;4763;48.370;10.874;2022-07-29T07:36:03;2.90;;;2.38;;
9449;SDS011;4763;48.370;10.874;2022-07-29T07:38:31;2.60;;;1.92;;
9449;SDS011;4763;48.370;10.874;2022-07-29T07:40:58;2.97;;;1.90;;
9449;SDS011;4763;48.370;10.874;2022-07-29T07:43:26;3.22;;;2.03;;
9449;SDS011;4763;48.370;10.874;2022-07-29T07:45:52;2.10;;;1.60;;
9449;SDS011;4763;48.370;10.874;2022-07-29T07:48:19;1.90;;;1.70;;
9449;SDS011;4763;48.370;10.874;2022-07-29T07:50:46;1.65;;;1.52;;
9449;SDS011;4763;48.370;10.874;2022-07-29T07:53:14;1.98;;;1.77;;
9449;SDS011;4763;48.370;10.874;2022-07-29T07:55:42;1.90;;;1.70;;
9449;SDS011;4763;48.370;10.874;2022-07-29T07:58:10;2.65;;;1.70;;
9449;SDS011;4763;48.370;10.874;2022-07-29T08:00:36;8.23;;;2.05;;
9449;SDS011;4763;48.370;10.874;2022-07-29T08:03:03;2.20;;;1.77;;
9449;SDS011;4763;48.370;10.874;2022-07-29T08:05:30;2.88;;;1.52;;
9449;SDS011;4763;48.370;10.874;2022-07-29T08:07:57;2.00;;;1.60;;
9449;SDS011;4763;48.370;10.874;2022-07-29T08:10:24;4.93;;;1.48;;
9449;SDS011;4763;48.370;10.874;2022-07-29T08:13:10;1.67;;;1.58;;
9449;SDS011;4763;48.370;10.874;2022-07-29T08:15:38;1.58;;;1.30;;
9449;SDS011;4763;48.370;10.874;2022-07-29T08:18:06;4.20;;;1.50;;
9449;SDS011;4763;48.370;10.874;2022-07-29T08:20:33;5.75;;;1.58;;
9449;SDS011;4763;48.370;10.874;2022-07-29T08:23:01;2.33;;;1.88;;
9449;SDS011;4763;48.370;10.874;2022-07-29T08:25:29;2.50;;;1.58;;
9449;SDS011;4763;48.370;10.874;2022-07-29T08:27:56;2.25;;;1.85;;
9449;SDS011;4763;48.370;10.874;2022-07-29T08:30:24;2.70;;;1.77;;
9449;SDS011;4763;48.370;10.874;2022-07-29T08:32:51;2.00;;;1.75;;
9449;SDS011;4763;48.370;10.874;2022-07-29T08:35:18;1.92;;;1.55;;
9449;SDS011;4763;48.370;10.874;2022-07-29T08:37:45;3.15;;;2.00;;
9449;SDS011;4763;48.370;10.874;2022-07-29T08:40:12;2.00;;;1.90;;
9449;SDS011;4763;48.370;10.874;2022-07-29T08:42:41;7.10;;;2.33;;
9449;SDS011;4763;48.370;10.874;2022-07-29T08:45:08;2.97;;;2.00;;
9449;SDS011;4763;48.370;10.874;2022-07-29T08:47:37;1.85;;;1.60;;
9449;SDS011;4763;48.370;10.874;2022-07-29T08:50:05;2.58;;;2.17;;
9449;SDS011;4763;48.370;10.874;2022-07-29T08:52:35;2.50;;;2.15;;
9449;SDS011;4763;48.370;10.874;2022-07-29T08:55:05;3.70;;;1.75;;
9449;SDS011;4763;48.370;10.874;2022-07-29T08:57:33;2.78;;;2.10;;
9449;SDS011;4763;48.370;10.874;2022-07-29T09:00:00;5.13;;;2.33;;
9449;SDS011;4763;48.370;10.874;2022-07-29T09:02:30;2.30;;;2.10;;
9449;SDS011;4763;48.370;10.874;2022-07-29T09:05:06;5.18;;;1.98;;
9449;SDS011;4763;48.370;10.874;2022-07-29T09:07:33;4.68;;;2.05;;
9449;SDS011;4763;48.370;10.874;2022-07-29T09:10:01;2.17;;;1.77;;
9449;SDS011;4763;48.370;10.874;2022-07-29T09:12:30;3.80;;;2.20;;
9449;SDS011;4763;48.370;10.874;2022-07-29T09:14:57;2.30;;;2.05;;
9449;SDS011;4763;48.370;10.874;2022-07-29T09:17:39;5.10;;;1.92;;
9449;SDS011;4763;48.370;10.874;2022-07-29T09:20:09;2.72;;;1.88;;
9449;SDS011;4763;48.370;10.874;2022-07-29T09:22:37;3.85;;;2.22;;
9449;SDS011;4763;48.370;10.874;2022-07-29T09:25:05;2.30;;;1.92;;
9449;SDS011;4763;48.370;10.874;2022-07-29T09:27:32;3.38;;;1.80;;
9449;SDS011;4763;48.370;10.874;2022-07-29T09:30:00;4.00;;;2.20;;
9449;SDS011;4763;48.370;10.874;2022-07-29T09:32:28;2.38;;;1.95;;
9449;SDS011;4763;48.370;10.874;2022-07-29T09:35:17;4.50;;;2.08;;
9449;SDS011;4763;48.370;10.874;2022-07-29T09:37:45;3.53;;;1.80;;
9449;SDS011;4763;48.370;10.874;2022-07-29T09:40:13;2.17;;;1.60;;
9449;SDS011;4763;48.370;10.874;2022-07-29T09:42:41;2.40;;;1.73;;
9449;SDS011;4763;48.370;10.874;2022-07-29T09:45:09;2.83;;;2.03;;
9449;SDS011;4763;48.370;10.874;2022-07-29T09:47:43;2.22;;;1.85;;
9449;SDS011;4763;48.370;10.874;2022-07-29T09:50:12;1.73;;;1.63;;
9449;SDS011;4763;48.370;10.874;2022-07-29T09:52:47;4.18;;;2.30;;
9449;SDS011;4763;48.370;10.874;2022-07-29T09:55:16;2.47;;;2.00;;
9449;SDS011;4763;48.370;10.874;2022-07-29T09:57:43;2.42;;;2.05;;
9449;SDS011;4763;48.370;10.874;2022-07-29T10:00:11;3.28;;;1.83;;
9449;SDS011;4763;48.370;10.874;2022-07-29T10:02:41;2.50;;;2.28;;
9449;SDS011;4763;48.370;10.874;2022-07-29T10:05:16;1.60;;;1.50;;
9449;SDS011;4763;48.370;10.874;2022-07-29T10:07:50;2.53;;;1.90;;
9449;SDS011;4763;48.370;10.874;2022-07-29T10:10:19;2.78;;;2.00;;
9449;SDS011;4763;48.370;10.874;2022-07-29T10:12:51;2.63;;;2.35;;
9449;SDS011;4763;48.370;10.874;2022-07-29T10:15:20;2.08;;;1.90;;
9449;SDS011;4763;48.370;10.874;2022-07-29T10:17:49;2.47;;;1.90;;
9449;SDS011;4763;48.370;10.874;2022-07-29T10:20:17;4.13;;;2.00;;
9449;SDS011;4763;48.370;10.874;2022-07-29T10:22:44;3.03;;;1.92;;
9449;SDS011;4763;48.370;10.874;2022-07-29T10:25:14;2.00;;;1.80;;
9449;SDS011;4763;48.370;10.874;2022-07-29T10:27:42;2.67;;;1.67;;
9449;SDS011;4763;48.370;10.874;2022-07-29T10:30:10;3.60;;;2.15;;
9449;SDS011;4763;48.370;10.874;2022-07-29T10:32:46;2.33;;;1.83;;
9449;SDS011;4763;48.370;10.874;2022-07-29T10:35:48;3.08;;;1.75;;
9449;SDS011;4763;48.370;10.874;2022-07-29T10:41:29;2.40;;;1.85;;
9449;SDS011;4763;48.370;10.874;2022-07-29T10:44:15;2.13;;;1.90;;
9449;SDS011;4763;48.370;10.874;2022-07-29T10:46:44;2.15;;;1.95;;
9449;SDS011;4763;48.370;10.874;2022-07-29T10:49:13;4.22;;;2.30;;
9449;SDS011;4763;48.370;10.874;2022-07-29T10:51:54;1.75;;;1.65;;
9449;SDS011;4763;48.370;10.874;2022-07-29T10:54:45;2.30;;;2.10;;
9449;SDS011;4763;48.370;10.874;2022-07-29T10:57:17;8.35;;;2.80;;
9449;SDS011;4763;48.370;10.874;2022-07-29T10:59:46;8.57;;;2.42;;
9449;SDS011;4763;48.370;10.874;2022-07-29T11:05:13;3.00;;;2.40;;
9449;SDS011;4763;48.370;10.874;2022-07-29T11:10:42;4.15;;;2.42;;
9449;SDS011;4763;48.370;10.874;2022-07-29T11:13:11;3.40;;;2.03;;
9449;SDS011;4763;48.370;10.874;2022-07-29T11:15:51;4.90;;;2.53;;
9449;SDS011;4763;48.370;10.874;2022-07-29T11:18:18;3.17;;;2.17;;
9449;SDS011;4763;48.370;10.874;2022-07-29T11:20:46;3.60;;;2.08;;
9449;SDS011;4763;48.370;10.874;2022-07-29T11:23:22;5.50;;;2.10;;
9449;SDS011;4763;48.370;10.874;2022-07-29T11:28:48;5.65;;;2.38;;
9449;SDS011;4763;48.370;10.874;2022-07-29T11:31:32;2.90;;;2.17;;
9449;SDS011;4763;48.370;10.874;2022-07-29T11:34:15;2.17;;;1.95;;
9449;SDS011;4763;48.370;10.874;2022-07-29T11:40:13;2.63;;;2.20;;
9449;SDS011;4763;48.370;10.874;2022-07-29T11:42:45;1.52;;;1.42;;
9449;SDS011;4763;48.370;10.874;2022-07-29T11:45:23;2.35;;;1.75;;
9449;SDS011;4763;48.370;10.874;2022-07-29T11:47:57;2.78;;;2.08;;
9449;SDS011;4763;48.370;10.874;2022-07-29T11:50:35;3.58;;;1.85;;
9449;SDS011;4763;48.370;10.874;2022-07-29T11:53:03;3.08;;;1.80;;
9449;SDS011;4763;48.370;10.874;2022-07-29T11:55:37;4.60;;;2.20;;
9449;SDS011;4763;48.370;10.874;2022-07-29T11:58:05;2.22;;;1.90;;
9449;SDS011;4763;48.370;10.874;2022-07-29T12:00:34;2.95;;;2.10;;
9449;SDS011;4763;48.370;10.874;2022-07-29T12:03:03;4.38;;;2.00;;
9449;SDS011;4763;48.370;10.874;2022-07-29T12:05:32;1.98;;;1.70;;
9449;SDS011;4763;48.370;10.874;2022-07-29T12:08:11;2.92;;;1.90;;
9449;SDS011;4763;48.370;10.874;2022-07-29T12:10:40;7.95;;;1.85;;
9449;SDS011;4763;48.370;10.874;2022-07-29T12:13:08;3.55;;;2.42;;
9449;SDS011;4763;48.370;10.874;2022-07-29T12:15:37;2.67;;;1.85;;
9449;SDS011;4763;48.370;10.874;2022-07-29T12:18:11;3.28;;;1.85;;
9449;SDS011;4763;48.370;10.874;2022-07-29T12:20:41;2.50;;;2.20;;
9449;SDS011;4763;48.370;10.874;2022-07-29T12:23:09;3.00;;;2.13;;
9449;SDS011;4763;48.370;10.874;2022-07-29T12:25:38;3.25;;;1.75;;
9449;SDS011;4763;48.370;10.874;2022-07-29T12:28:07;2.30;;;1.83;;
9449;SDS011;4763;48.370;10.874;2022-07-29T12:30:43;1.52;;;1.42;;
9449;SDS011;4763;48.370;10.874;2022-07-29T12:33:15;2.53;;;1.83;;
9449;SDS011;4763;48.370;10.874;2022-07-29T12:35:44;4.97;;;1.73;;
9449;SDS011;4763;48.370;10.874;2022-07-29T12:38:13;2.88;;;1.90;;
9449;SDS011;4763;48.370;10.874;2022-07-29T12:40:41;5.50;;;2.30;;
9449;SDS011;4763;48.370;10.874;2022-07-29T12:43:09;3.78;;;1.92;;
9449;SDS011;4763;48.370;10.874;2022-07-29T12:45:38;3.55;;;1.98;;
9449;SDS011;4763;48.370;10.874;2022-07-29T12:48:07;3.67;;;1.88;;
9449;SDS011;4763;48.370;10.874;2022-07-29T12:50:35;1.88;;;1.70;;
9449;SDS011;4763;48.370;10.874;2022-07-29T12:53:09;2.03;;;1.83;;
9449;SDS011;4763;48.370;10.874;2022-07-29T12:55:39;1.92;;;1.75;;
9449;SDS011;4763;48.370;10.874;2022-07-29T12:58:07;3.83;;;1.85;;
9449;SDS011;4763;48.370;10.874;2022-07-29T13:00:34;2.58;;;2.00;;
9449;SDS011;4763;48.370;10.874;2022-07-29T13:03:01;1.70;;;1.60;;
9449;SDS011;4763;48.370;10.874;2022-07-29T13:08:30;2.08;;;1.70;;
9449;SDS011;4763;48.370;10.874;2022-07-29T13:10:57;1.70;;;1.60;;
9449;SDS011;4763;48.370;10.874;2022-07-29T13:13:24;7.70;;;1.77;;
9449;SDS011;4763;48.370;10.874;2022-07-29T13:16:05;3.95;;;1.38;;
9449;SDS011;4763;48.370;10.874;2022-07-29T13:18:35;5.55;;;1.83;;
9449;SDS011;4763;48.370;10.874;2022-07-29T13:21:09;3.28;;;1.70;;
9449;SDS011;4763;48.370;10.874;2022-07-29T13:23:39;4.07;;;1.50;;
9449;SDS011;4763;48.370;10.874;2022-07-29T13:26:06;2.30;;;1.35;;
9449;SDS011;4763;48.370;10.874;2022-07-29T13:28:34;1.50;;;1.40;;
9449;SDS011;4763;48.370;10.874;2022-07-29T13:31:04;1.60;;;1.50;;
9449;SDS011;4763;48.370;10.874;2022-07-29T13:33:32;4.45;;;1.83;;
9449;SDS011;4763;48.370;10.874;2022-07-29T13:35:59;2.22;;;1.58;;
9449;SDS011;4763;48.370;10.874;2022-07-29T13:38:26;2.30;;;1.80;;
9449;SDS011;4763;48.370;10.874;2022-07-29T13:40:54;3.55;;;1.73;;
9449;SDS011;4763;48.370;10.874;2022-07-29T13:43:21;2.00;;;1.80;;
9449;SDS011;4763;48.370;10.874;2022-07-29T13:45:48;2.88;;;1.88;;
9449;SDS011;4763;48.370;10.874;2022-07-29T13:48:16;4.57;;;1.70;;
9449;SDS011;4763;48.370;10.874;2022-07-29T13:50:43;2.85;;;1.80;;
9449;SDS011;4763;48.370;10.874;2022-07-29T13:53:10;1.80;;;1.33;;
9449;SDS011;4763;48.370;10.874;2022-07-29T13:55:40;1.70;;;1.60;;
9449;SDS011;4763;48.370;10.874;2022-07-29T13:58:08;3.35;;;1.42;;
9449;SDS011;4763;48.370;10.874;2022-07-29T14:00:35;6.90;;;2.42;;
9449;SDS011;4763;48.370;10.874;2022-07-29T14:03:02;2.00;;;1.67;;
9449;SDS011;4763;48.370;10.874;2022-07-29T14:05:29;2.55;;;1.45;;
9449;SDS011;4763;48.370;10.874;2022-07-29T14:07:56;5.28;;;2.28;;
9449;SDS011;4763;48.370;10.874;2022-07-29T14:10:29;3.88;;;1.65;;
9449;SDS011;4763;48.370;10.874;2022-07-29T14:12:59;2.95;;;2.15;;
9449;SDS011;4763;48.370;10.874;2022-07-29T14:15:28;4.63;;;2.00;;
9449;SDS011;4763;48.370;10.874;2022-07-29T14:17:55;1.67;;;1.58;;
9449;SDS011;4763;48.370;10.874;2022-07-29T14:20:22;2.92;;;1.77;;
9449;SDS011;4763;48.370;10.874;2022-07-29T14:22:48;2.42;;;1.63;;
9449;SDS011;4763;48.370;10.874;2022-07-29T14:25:15;2.63;;;1.90;;
9449;SDS011;4763;48.370;10.874;2022-07-29T14:27:42;4.05;;;2.20;;
9449;SDS011;4763;48.370;10.874;2022-07-29T14:30:10;3.00;;;1.90;;
9449;SDS011;4763;48.370;10.874;2022-07-29T14:32:38;2.65;;;1.83;;
9449;SDS011;4763;48.370;10.874;2022-07-29T14:35:06;7.13;;;1.50;;
9449;SDS011;4763;48.370;10.874;2022-07-29T14:37:37;1.70;;;1.55;;
9449;SDS011;4763;48.370;10.874;2022-07-29T14:40:04;3.83;;;1.90;;
9449;SDS011;4763;48.370;10.874;2022-07-29T14:42:33;3.97;;;2.00;;
9449;SDS011;4763;48.370;10.874;2022-07-29T14:45:09;2.10;;;1.67;;
9449;SDS011;4763;48.370;10.874;2022-07-29T14:47:36;3.92;;;1.95;;
9449;SDS011;4763;48.370;10.874;2022-07-29T14:50:06;3.33;;;1.55;;
9449;SDS011;4763;48.370;10.874;2022-07-29T14:52:33;3.00;;;1.67;;
9449;SDS011;4763;48.370;10.874;2022-07-29T14:55:00;2.78;;;1.70;;
9449;SDS011;4763;48.370;10.874;2022-07-29T14:57:27;4.88;;;2.17;;
9449;SDS011;4763;48.370;10.874;2022-07-29T14:59:54;2.22;;;1.90;;
9449;SDS011;4763;48.370;10.874;2022-07-29T15:02:21;2.15;;;1.70;;
9449;SDS011;4763;48.370;10.874;2022-07-29T15:04:50;3.80;;;1.88;;
9449;SDS011;4763;48.370;10.874;2022-07-29T15:07:17;4.55;;;1.52;;
9449;SDS011;4763;48.370;10.874;2022-07-29T15:09:44;2.13;;;1.70;;
9449;SDS011;4763;48.370;10.874;2022-07-29T15:12:11;2.13;;;1.35;;
9449;SDS011;4763;48.370;10.874;2022-07-29T15:14:44;1.70;;;1.60;;
9449;SDS011;4763;48.370;10.874;2022-07-29T15:17:12;4.40;;;1.83;;
9449;SDS011;4763;48.370;10.874;2022-07-29T15:19:41;3.35;;;2.55;;
9449;SDS011;4763;48.370;10.874;2022-07-29T15:22:36;1.85;;;1.75;;
9449;SDS011;4763;48.370;10.874;2022-07-29T15:25:03;2.90;;;2.20;;
9449;SDS011;4763;48.370;10.874;2022-07-29T15:27:30;9.20;;;2.05;;
9449;SDS011;4763;48.370;10.874;2022-07-29T15:29:57;1.73;;;1.63;;
9449;SDS011;4763;48.370;10.874;2022-07-29T15:32:24;4.85;;;2.40;;
9449;SDS011;4763;48.370;10.874;2022-07-29T15:34:51;3.47;;;2.45;;